createdAt,value
2018-12-24T00:00:29.722Z,53.50
2018-12-24T00:02:55.657Z,52.68
2018-12-24T00:05:24.767Z,52.71
2018-12-24T00:07:55.740Z,52.74
2018-12-24T00:10:21.639Z,52.88
2018-12-24T00:12:50.607Z,52.87
2018-12-24T00:15:19.657Z,52.69
2018-12-24T00:17:48.634Z,52.86
2018-12-24T00:20:17.639Z,52.56
2018-12-24T00:22:46.588Z,52.73
2018-12-24T00:25:15.527Z,52.96
2018-12-24T00:27:41.416Z,52.82
2018-12-24T00:30:10.431Z,52.54
2018-12-24T00:32:39.331Z,52.69
2018-12-24T00:35:08.271Z,52.80
2018-12-24T00:37:34.172Z,52.77
2018-12-24T00:40:03.480Z,52.73
2018-12-24T00:42:29.688Z,52.85
2018-12-24T00:44:58.862Z,52.69
2018-12-24T00:47:27.798Z,52.69
2018-12-24T00:49:57.291Z,52.77
2018-12-24T00:52:25.492Z,52.78
2018-12-24T00:54:51.393Z,52.24
2018-12-24T00:57:17.293Z,52.68
2018-12-24T00:59:43.669Z,53.00
2018-12-24T01:02:09.945Z,52.64
2018-12-24T01:04:35.840Z,52.57
2018-12-24T01:07:04.771Z,52.31
2018-12-24T01:09:33.723Z,52.36
2018-12-24T01:12:02.807Z,52.15
2018-12-24T01:14:31.750Z,52.37
2018-12-24T01:17:00.935Z,52.44
2018-12-24T01:19:29.833Z,52.42
2018-12-24T01:21:59.418Z,52.31
2018-12-24T01:24:28.089Z,52.23
2018-12-24T01:26:57.062Z,52.12
2018-12-24T01:29:26.371Z,52.57
2018-12-24T01:31:53.013Z,52.08
2018-12-24T01:34:22.054Z,52.19
2018-12-24T01:36:47.941Z,52.28
2018-12-24T01:39:16.714Z,52.08
2018-12-24T01:41:45.807Z,52.33
2018-12-24T01:44:14.801Z,52.01
2018-12-24T01:46:40.705Z,52.03
2018-12-24T01:49:09.681Z,52.30
2018-12-24T01:51:38.865Z,51.82
2018-12-24T01:54:07.799Z,51.64
2018-12-24T01:56:36.925Z,52.27
2018-12-24T01:59:05.832Z,51.69
2018-12-24T02:01:34.855Z,51.68
2018-12-24T02:04:03.782Z,51.73
2018-12-24T02:06:30.107Z,51.63
2018-12-24T02:08:58.789Z,51.60
2018-12-24T02:11:25.074Z,52.08
2018-12-24T02:13:50.977Z,51.61
2018-12-24T02:16:19.628Z,52.13
2018-12-24T02:18:48.542Z,51.39
2018-12-24T02:21:17.449Z,51.52
2018-12-24T02:23:46.409Z,51.75
2018-12-24T02:26:15.391Z,51.58
2018-12-24T02:28:44.358Z,51.32
2018-12-24T02:31:10.307Z,51.36
2018-12-24T02:33:36.536Z,51.58
2018-12-24T02:36:02.823Z,51.78
2018-12-24T02:38:28.758Z,51.88
2018-12-24T02:40:54.650Z,51.32
2018-12-24T02:43:24.717Z,51.43
2018-12-24T02:45:50.636Z,51.74
2018-12-24T02:48:19.350Z,51.52
2018-12-24T02:50:48.367Z,51.38
2018-12-24T02:53:17.301Z,51.38
2018-12-24T02:55:46.211Z,51.49
2018-12-24T02:58:14.919Z,51.25
2018-12-24T03:00:43.888Z,51.40
2018-12-24T03:03:09.827Z,51.92
2018-12-24T03:05:38.808Z,51.54
2018-12-24T03:08:07.708Z,51.23
2018-12-24T03:10:36.693Z,51.38
2018-12-24T03:13:05.597Z,51.92
2018-12-24T03:15:34.627Z,51.21
2018-12-24T03:18:03.706Z,51.26
2018-12-24T03:20:32.571Z,52.06
2018-12-24T03:22:58.491Z,50.97
2018-12-24T03:25:27.462Z,51.61
2018-12-24T03:27:56.424Z,51.20
2018-12-24T03:30:25.308Z,51.12
2018-12-24T03:32:51.714Z,51.25
2018-12-24T03:35:20.670Z,51.20
2018-12-24T03:37:49.652Z,50.48
2018-12-24T03:40:18.582Z,50.73
2018-12-24T03:42:47.494Z,50.84
2018-12-24T03:45:16.418Z,50.53
2018-12-24T03:47:45.371Z,50.48
2018-12-24T03:50:14.333Z,51.72
2018-12-24T03:52:43.762Z,51.03
2018-12-24T03:55:12.416Z,51.14
2018-12-24T03:57:41.532Z,52.26
2018-12-24T04:00:07.858Z,50.87
2018-12-24T04:02:36.936Z,50.35
2018-12-24T04:05:05.833Z,51.18
2018-12-24T04:07:35.333Z,51.07
2018-12-24T04:10:03.965Z,50.58
2018-12-24T04:12:33.026Z,50.48
2018-12-24T04:14:58.920Z,50.47
2018-12-24T04:17:24.821Z,50.43
2018-12-24T04:19:50.720Z,50.45
2018-12-24T04:22:19.635Z,50.25
2018-12-24T04:24:45.542Z,50.51
2018-12-24T04:27:11.441Z,50.72
2018-12-24T04:29:37.370Z,50.35
2018-12-24T04:32:03.659Z,50.86
2018-12-24T04:34:32.348Z,50.76
2018-12-24T04:36:58.285Z,51.03
2018-12-24T04:39:30.223Z,51.15
2018-12-24T04:41:56.157Z,51.64
2018-12-24T04:44:25.101Z,51.38
2018-12-24T04:46:57.816Z,51.31
2018-12-24T04:49:26.794Z,50.61
2018-12-24T04:51:55.759Z,50.81
2018-12-24T04:54:24.725Z,51.00
2018-12-24T04:56:55.885Z,50.35
2018-12-24T04:59:25.100Z,50.91
2018-12-24T05:01:55.900Z,49.80
2018-12-24T05:04:22.772Z,49.87
2018-12-24T05:06:51.426Z,50.08
2018-12-24T05:09:20.406Z,50.18
2018-12-24T05:11:49.319Z,50.07
2018-12-24T05:14:15.209Z,49.50
2018-12-24T05:16:44.122Z,49.86
2018-12-24T05:19:10.019Z,50.57
2018-12-24T05:21:38.751Z,49.37
2018-12-24T05:24:08.159Z,50.14
2018-12-24T05:26:36.837Z,50.26
2018-12-24T05:29:06.323Z,49.76
2018-12-24T05:31:32.223Z,50.46
2018-12-24T05:34:01.122Z,49.69
2018-12-24T05:36:30.096Z,49.59
2018-12-24T05:38:59.185Z,49.30
2018-12-24T05:41:28.127Z,49.71
2018-12-24T05:43:55.930Z,49.81
2018-12-24T05:46:24.692Z,49.80
2018-12-24T05:48:54.330Z,48.99
2018-12-24T05:51:23.301Z,49.51
2018-12-24T05:53:52.271Z,49.65
2018-12-24T05:56:21.176Z,50.38
2018-12-24T05:58:50.115Z,49.68
2018-12-24T06:01:19.044Z,48.84
2018-12-24T06:03:47.958Z,49.17
2018-12-24T06:06:13.867Z,49.50
2018-12-24T06:08:39.796Z,48.60
2018-12-24T06:11:05.690Z,50.30
2018-12-24T06:13:34.714Z,48.98
2018-12-24T06:16:03.391Z,48.53
2018-12-24T06:18:32.855Z,48.61
2018-12-24T06:20:58.744Z,48.45
2018-12-24T06:23:24.646Z,48.69
2018-12-24T06:25:53.387Z,48.22
2018-12-24T06:28:22.080Z,48.93
2018-12-24T06:30:50.994Z,48.83
2018-12-24T06:33:19.969Z,48.55
2018-12-24T06:35:49.337Z,48.48
2018-12-24T06:38:17.970Z,49.39
2018-12-24T06:40:43.860Z,49.12
2018-12-24T06:43:09.777Z,50.33
2018-12-24T06:45:39.268Z,49.58
2018-12-24T06:48:07.948Z,49.09
2018-12-24T06:50:37.043Z,49.14
2018-12-24T06:53:05.941Z,48.27
2018-12-24T06:55:35.266Z,48.85
2018-12-24T06:58:03.938Z,48.56
2018-12-24T07:00:32.829Z,48.31
2018-12-24T07:03:00.642Z,48.09
2018-12-24T07:05:29.327Z,47.70
2018-12-24T07:07:55.541Z,47.80
2018-12-24T07:10:24.427Z,48.59
2018-12-24T07:12:54.788Z,48.17
2018-12-24T07:15:26.052Z,47.99
2018-12-24T07:17:55.118Z,48.22
2018-12-24T07:20:24.158Z,48.25
2018-12-24T07:22:53.088Z,48.71
2018-12-24T07:25:22.025Z,48.83
2018-12-24T07:27:51.190Z,48.22
2018-12-24T07:30:20.088Z,47.67
2018-12-24T07:32:46.963Z,48.09
2018-12-24T07:35:12.861Z,47.68
2018-12-24T07:37:42.164Z,47.83
2018-12-24T07:40:10.830Z,47.42
2018-12-24T07:42:39.893Z,47.56
2018-12-24T07:45:08.809Z,47.52
2018-12-24T07:47:34.694Z,47.47
2018-12-24T07:50:00.584Z,48.02
2018-12-24T07:52:26.910Z,49.18
2018-12-24T07:54:52.803Z,47.91
2018-12-24T07:57:19.069Z,48.76
2018-12-24T07:59:44.966Z,48.24
2018-12-24T08:02:10.871Z,48.57
2018-12-24T08:04:36.766Z,48.20
2018-12-24T08:07:02.663Z,48.31
2018-12-24T08:09:28.597Z,47.91
2018-12-24T08:11:57.261Z,49.24
2018-12-24T08:14:32.922Z,49.77
2018-12-24T08:16:57.093Z,48.68
2018-12-24T08:19:23.036Z,48.56
2018-12-24T08:21:51.933Z,48.61
2018-12-24T08:24:17.866Z,47.83
2018-12-24T08:26:46.513Z,49.38
2018-12-24T08:29:12.442Z,47.55
2018-12-24T08:31:41.350Z,48.24
2018-12-24T08:34:07.920Z,48.05
2018-12-24T08:36:36.649Z,48.31
2018-12-24T08:39:04.236Z,48.19
2018-12-24T08:41:30.144Z,48.55
2018-12-24T08:43:56.033Z,48.14
2018-12-24T08:46:24.747Z,48.27
2018-12-24T08:48:50.631Z,47.96
2018-12-24T08:51:16.681Z,48.83
2018-12-24T08:53:45.832Z,47.79
2018-12-24T08:56:14.525Z,47.39
2018-12-24T08:58:40.430Z,47.69
2018-12-24T09:01:09.129Z,47.40
2018-12-24T09:03:38.596Z,48.80
2018-12-24T09:06:07.345Z,48.11
2018-12-24T09:08:33.237Z,47.73
2018-12-24T09:11:02.451Z,48.28
2018-12-24T09:13:28.353Z,48.79
2018-12-24T09:15:57.415Z,47.74
2018-12-24T09:18:26.317Z,48.22
2018-12-24T09:20:55.597Z,49.39
2018-12-24T09:23:27.622Z,48.14
2018-12-24T09:25:56.576Z,49.28
2018-12-24T09:28:25.946Z,48.93
2018-12-24T09:30:55.367Z,48.40
2018-12-24T09:33:21.272Z,48.71
2018-12-24T09:35:49.941Z,49.00
2018-12-24T09:38:18.991Z,48.65
2018-12-24T09:40:47.914Z,47.63
2018-12-24T09:43:16.919Z,47.99
2018-12-24T09:45:45.820Z,48.86
2018-12-24T09:48:14.771Z,48.04
2018-12-24T09:50:43.705Z,47.29
2018-12-24T09:53:12.668Z,47.11
2018-12-24T09:55:41.673Z,47.78
2018-12-24T09:58:10.940Z,48.96
2018-12-24T10:00:39.727Z,48.01
2018-12-24T10:03:08.487Z,49.01
2018-12-24T10:05:37.580Z,48.74
2018-12-24T10:08:05.420Z,48.20
2018-12-24T10:10:34.501Z,47.02
2018-12-24T10:13:03.447Z,48.68
2018-12-24T10:15:32.572Z,47.66
2018-12-24T10:18:01.575Z,47.21
2018-12-24T10:20:30.593Z,48.01
2018-12-24T10:22:59.456Z,46.93
2018-12-24T10:25:28.422Z,46.96
2018-12-24T10:28:00.454Z,47.86
2018-12-24T10:30:29.404Z,46.70
2018-12-24T10:32:58.561Z,48.50
2018-12-24T10:35:27.471Z,47.27
2018-12-24T10:37:56.568Z,46.79
2018-12-24T10:40:22.468Z,47.26
2018-12-24T10:42:48.740Z,46.24
2018-12-24T10:45:16.710Z,46.57
2018-12-24T10:47:42.387Z,46.09
2018-12-24T10:50:08.281Z,47.09
2018-12-24T10:52:34.191Z,46.71
2018-12-24T10:55:00.164Z,46.81
2018-12-24T10:57:26.167Z,46.73
2018-12-24T10:59:54.820Z,46.08
2018-12-24T11:02:25.836Z,47.81
2018-12-24T11:04:54.602Z,48.53
2018-12-24T11:07:25.655Z,47.32
2018-12-24T11:09:54.566Z,48.27
2018-12-24T11:12:23.228Z,46.98
2018-12-24T11:14:52.212Z,46.22
2018-12-24T11:17:20.879Z,46.83
2018-12-24T11:19:49.955Z,46.56
2018-12-24T11:22:18.610Z,46.66
2018-12-24T11:24:47.504Z,46.20
2018-12-24T11:27:13.398Z,47.58
2018-12-24T11:29:39.285Z,48.20
2018-12-24T11:32:05.189Z,46.68
2018-12-24T11:34:31.141Z,47.94
2018-12-24T11:36:57.043Z,46.68
2018-12-24T11:39:22.944Z,46.45
2018-12-24T11:41:48.841Z,47.86
2018-12-24T11:44:14.734Z,48.14
2018-12-24T11:46:40.660Z,46.79
2018-12-24T11:49:09.368Z,46.70
2018-12-24T11:51:38.466Z,47.75
2018-12-24T11:54:07.435Z,48.09
2018-12-24T11:56:36.371Z,47.22
2018-12-24T11:59:05.329Z,47.68
2018-12-24T12:01:34.329Z,46.98
2018-12-24T12:04:03.607Z,47.80
2018-12-24T12:06:29.529Z,48.14
2018-12-24T12:08:55.414Z,48.04
2018-12-24T12:11:21.364Z,47.18
2018-12-24T12:13:50.058Z,47.04
2018-12-24T12:16:18.979Z,46.72
2018-12-24T12:18:47.937Z,47.35
2018-12-24T12:21:16.972Z,48.11
2018-12-24T12:23:45.689Z,46.73
2018-12-24T12:26:14.830Z,47.54
2018-12-24T12:28:40.731Z,46.61
2018-12-24T12:31:09.645Z,47.00
2018-12-24T12:33:38.990Z,47.12
2018-12-24T12:36:04.927Z,47.94
2018-12-24T12:38:30.820Z,47.51
2018-12-24T12:40:56.723Z,47.56
2018-12-24T12:43:25.560Z,47.48
2018-12-24T12:45:54.477Z,46.55
2018-12-24T12:48:24.095Z,47.91
2018-12-24T12:50:52.867Z,46.53
2018-12-24T12:53:21.854Z,46.34
2018-12-24T12:55:50.787Z,46.55
2018-12-24T12:58:19.686Z,46.83
2018-12-24T13:00:45.623Z,47.25
2018-12-24T13:03:14.724Z,47.09
2018-12-24T13:05:43.402Z,47.68
2018-12-24T13:08:12.471Z,46.42
2018-12-24T13:10:41.363Z,47.36
2018-12-24T13:13:10.414Z,46.56
2018-12-24T13:15:39.676Z,47.27
2018-12-24T13:18:08.344Z,47.22
2018-12-24T13:20:37.017Z,47.80
2018-12-24T13:23:05.970Z,46.60
2018-12-24T13:25:34.886Z,47.74
2018-12-24T13:28:03.808Z,46.63
2018-12-24T13:30:32.958Z,47.17
2018-12-24T13:33:01.638Z,46.30
2018-12-24T13:35:30.830Z,47.84
2018-12-24T13:37:59.494Z,47.16
2018-12-24T13:40:28.678Z,47.53
2018-12-24T13:42:57.969Z,47.38
2018-12-24T13:45:27.318Z,46.63
2018-12-24T13:47:56.240Z,46.60
2018-12-24T13:50:25.289Z,46.50
2018-12-24T13:52:51.311Z,46.01
2018-12-24T13:55:20.325Z,46.08
2018-12-24T13:57:49.231Z,46.04
2018-12-24T14:00:15.128Z,46.74
2018-12-24T14:02:41.025Z,45.93
2018-12-24T14:05:09.963Z,48.09
2018-12-24T14:07:39.252Z,46.32
2018-12-24T14:10:08.129Z,45.78
2018-12-24T14:12:37.046Z,46.94
2018-12-24T14:15:06.198Z,46.48
2018-12-24T14:17:35.451Z,46.43
2018-12-24T14:20:05.000Z,46.13
2018-12-24T14:22:33.666Z,46.99
2018-12-24T14:25:02.759Z,46.86
2018-12-24T14:27:31.737Z,46.32
2018-12-24T14:30:00.716Z,47.53
2018-12-24T14:32:29.677Z,47.35
2018-12-24T14:34:55.570Z,47.47
2018-12-24T14:37:27.301Z,47.22
2018-12-24T14:39:56.206Z,47.01
2018-12-24T14:42:25.319Z,46.42
2018-12-24T14:44:57.331Z,47.24
2018-12-24T14:47:23.237Z,47.03
2018-12-24T14:49:52.153Z,46.44
2018-12-24T14:52:18.378Z,46.80
2018-12-24T14:54:44.275Z,46.90
2018-12-24T14:57:10.164Z,46.99
2018-12-24T14:59:36.075Z,46.45
2018-12-24T15:02:02.372Z,47.32
2018-12-24T15:04:28.253Z,47.17
2018-12-24T15:06:57.342Z,46.78
2018-12-24T15:09:25.816Z,46.53
2018-12-24T15:11:51.694Z,47.25
2018-12-24T15:14:17.582Z,46.92
2018-12-24T15:16:46.511Z,46.95
2018-12-24T15:19:15.442Z,46.30
2018-12-24T15:21:44.491Z,46.40
2018-12-24T15:24:10.389Z,47.13
2018-12-24T15:26:39.093Z,46.53
2018-12-24T15:29:04.989Z,46.74
2018-12-24T15:31:33.948Z,46.61
2018-12-24T15:34:02.911Z,46.70
2018-12-24T15:36:29.654Z,45.80
2018-12-24T15:38:58.648Z,46.06
2018-12-24T15:41:27.575Z,46.91
2018-12-24T15:43:56.508Z,46.74
2018-12-24T15:46:25.435Z,47.12
2018-12-24T15:48:57.362Z,46.88
2018-12-24T15:51:23.266Z,46.71
2018-12-24T15:53:49.152Z,46.73
2018-12-24T15:56:18.066Z,46.29
2018-12-24T15:58:43.963Z,45.85
2018-12-24T16:01:12.902Z,45.91
2018-12-24T16:03:42.016Z,46.16
2018-12-24T16:06:10.943Z,46.40
2018-12-24T16:08:36.872Z,45.78
2018-12-24T16:11:02.770Z,47.22
2018-12-24T16:13:28.736Z,45.99
2018-12-24T16:15:54.620Z,45.78
2018-12-24T16:18:20.519Z,46.73
2018-12-24T16:20:46.447Z,47.02
2018-12-24T16:23:15.377Z,46.69
2018-12-24T16:25:44.112Z,45.55
2018-12-24T16:28:12.777Z,46.26
2018-12-24T16:30:39.107Z,46.37
2018-12-24T16:33:05.005Z,46.02
2018-12-24T16:35:30.975Z,46.23
2018-12-24T16:37:56.946Z,45.94
2018-12-24T16:40:25.835Z,45.92
2018-12-24T16:42:51.774Z,45.45
2018-12-24T16:45:20.879Z,45.00
2018-12-24T16:47:49.789Z,46.06
2018-12-24T16:50:18.926Z,45.02
2018-12-24T16:52:47.824Z,45.56
2018-12-24T16:55:16.855Z,45.15
2018-12-24T16:57:45.768Z,45.49
2018-12-24T17:00:12.172Z,45.69
2018-12-24T17:02:41.129Z,45.64
2018-12-24T17:05:10.141Z,46.29
2018-12-24T17:07:36.072Z,45.38
2018-12-24T17:10:06.094Z,45.60
2018-12-24T17:12:34.809Z,45.35
2018-12-24T17:15:03.942Z,45.48
2018-12-24T17:17:29.843Z,46.32
2018-12-24T17:19:55.736Z,46.17
2018-12-24T17:22:24.644Z,45.93
2018-12-24T17:24:55.728Z,45.78
2018-12-24T17:27:24.989Z,46.68
2018-12-24T17:29:54.199Z,46.63
2018-12-24T17:32:22.908Z,46.45
2018-12-24T17:34:48.855Z,46.29
2018-12-24T17:37:15.154Z,45.89
2018-12-24T17:39:44.044Z,45.90
2018-12-24T17:42:12.955Z,46.28
2018-12-24T17:44:42.153Z,47.22
2018-12-24T17:47:16.098Z,46.07
2018-12-24T17:49:38.640Z,45.93
2018-12-24T17:52:07.569Z,46.42
2018-12-24T17:54:36.634Z,45.65
2018-12-24T17:57:02.908Z,45.55
2018-12-24T17:59:29.158Z,46.18
2018-12-24T18:01:55.160Z,46.11
2018-12-24T18:04:27.126Z,46.25
2018-12-24T18:06:56.043Z,46.21
2018-12-24T18:09:25.059Z,47.14
2018-12-24T18:11:56.238Z,46.37
2018-12-24T18:14:22.119Z,46.41
2018-12-24T18:16:48.015Z,45.72
2018-12-24T18:19:17.266Z,45.70
2018-12-24T18:21:43.156Z,46.41
2018-12-24T18:24:11.812Z,47.69
2018-12-24T18:26:37.723Z,45.66
2018-12-24T18:29:03.623Z,45.91
2018-12-24T18:31:32.874Z,45.72
2018-12-24T18:33:58.775Z,46.29
2018-12-24T18:36:25.592Z,45.95
2018-12-24T18:38:51.837Z,46.91
2018-12-24T18:41:20.857Z,46.83
2018-12-24T18:43:49.741Z,47.32
2018-12-24T18:46:15.637Z,47.64
2018-12-24T18:48:41.539Z,46.37
2018-12-24T18:51:07.437Z,46.45
2018-12-24T18:53:36.356Z,46.24
2018-12-24T18:56:02.252Z,48.61
2018-12-24T18:58:28.157Z,46.99
2018-12-24T19:00:56.046Z,46.94
2018-12-24T19:03:24.845Z,47.64
2018-12-24T19:05:50.745Z,46.70
2018-12-24T19:08:19.839Z,47.01
2018-12-24T19:10:45.732Z,46.71
2018-12-24T19:13:11.635Z,46.78
2018-12-24T19:15:40.528Z,46.03
2018-12-24T19:18:06.421Z,46.95
2018-12-24T19:20:35.359Z,47.04
2018-12-24T19:23:04.021Z,46.21
2018-12-24T19:25:32.986Z,46.79
2018-12-24T19:28:01.901Z,46.31
2018-12-24T19:30:27.829Z,46.37
2018-12-24T19:32:56.745Z,46.93
2018-12-24T19:35:22.681Z,47.06
2018-12-24T19:37:48.621Z,47.43
2018-12-24T19:40:17.559Z,46.81
2018-12-24T19:42:46.489Z,46.63
2018-12-24T19:45:15.519Z,46.99
2018-12-24T19:47:49.866Z,47.37
2018-12-24T19:50:15.168Z,46.78
2018-12-24T19:52:41.039Z,47.15
2018-12-24T19:55:10.177Z,46.27
2018-12-24T19:57:38.902Z,46.27
2018-12-24T20:00:08.000Z,47.63
2018-12-24T20:02:37.254Z,47.61
2018-12-24T20:05:06.076Z,47.46
2018-12-24T20:07:31.969Z,46.90
2018-12-24T20:10:01.495Z,47.22
2018-12-24T20:12:30.160Z,46.77
2018-12-24T20:14:59.377Z,47.98
2018-12-24T20:17:28.322Z,47.50
2018-12-24T20:20:00.353Z,47.74
2018-12-24T20:22:29.334Z,47.10
2018-12-24T20:24:58.696Z,47.19
2018-12-24T20:27:27.505Z,47.12
2018-12-24T20:29:56.430Z,47.60
2018-12-24T20:32:25.595Z,47.34
2018-12-24T20:34:54.503Z,46.85
2018-12-24T20:37:20.800Z,47.32
2018-12-24T20:39:49.729Z,47.22
2018-12-24T20:42:18.868Z,47.12
2018-12-24T20:44:47.804Z,47.14
2018-12-24T20:47:16.920Z,47.26
2018-12-24T20:49:45.828Z,47.81
2018-12-24T20:52:15.195Z,47.67
2018-12-24T20:54:44.105Z,47.29
2018-12-24T20:57:10.367Z,46.88
2018-12-24T20:59:39.697Z,47.04
2018-12-24T21:02:08.921Z,46.99
2018-12-24T21:04:35.186Z,47.44
2018-12-24T21:07:01.443Z,46.63
2018-12-24T21:09:30.077Z,46.96
2018-12-24T21:11:56.022Z,46.97
2018-12-24T21:14:21.925Z,46.39
2018-12-24T21:16:48.205Z,47.19
2018-12-24T21:19:17.331Z,47.31
2018-12-24T21:21:43.228Z,47.86
2018-12-24T21:24:09.533Z,47.99
2018-12-24T21:26:35.419Z,48.00
2018-12-24T21:29:04.326Z,47.53
2018-12-24T21:31:30.222Z,48.10
2018-12-24T21:33:59.112Z,47.17
2018-12-24T21:36:25.014Z,47.07
2018-12-24T21:38:50.904Z,46.71
2018-12-24T21:41:16.808Z,48.17
2018-12-24T21:43:42.714Z,48.00
2018-12-24T21:46:08.628Z,47.71
2018-12-24T21:48:34.510Z,47.67
2018-12-24T21:51:03.674Z,47.31
2018-12-24T21:53:32.590Z,47.29
2018-12-24T21:56:02.138Z,47.74
2018-12-24T21:58:30.848Z,47.71
2018-12-24T22:00:59.863Z,47.67
2018-12-24T22:03:28.776Z,47.55
2018-12-24T22:05:54.725Z,47.24
2018-12-24T22:08:26.151Z,47.65
2018-12-24T22:10:52.043Z,47.50
2018-12-24T22:13:21.373Z,48.03
2018-12-24T22:15:47.430Z,47.86
2018-12-24T22:18:16.124Z,48.30
2018-12-24T22:20:45.217Z,47.76
2018-12-24T22:23:11.160Z,47.63
2018-12-24T22:25:40.200Z,48.17
2018-12-24T22:28:09.593Z,47.63
2018-12-24T22:30:38.463Z,48.37
2018-12-24T22:33:07.440Z,47.94
2018-12-24T22:35:33.379Z,48.03
2018-12-24T22:38:00.052Z,48.45
2018-12-24T22:40:25.954Z,48.27
2018-12-24T22:42:55.012Z,47.98
2018-12-24T22:45:25.941Z,48.31
2018-12-24T22:47:55.041Z,48.55
2018-12-24T22:50:20.924Z,48.30
2018-12-24T22:52:49.865Z,48.07
2018-12-24T22:55:18.828Z,48.93
2018-12-24T22:57:48.111Z,48.04
2018-12-24T23:00:19.087Z,47.65
2018-12-24T23:02:48.027Z,48.05
2018-12-24T23:05:17.203Z,48.42
2018-12-24T23:07:43.106Z,48.14
2018-12-24T23:10:11.935Z,48.66
2018-12-24T23:12:40.636Z,48.25
2018-12-24T23:15:09.804Z,48.45
2018-12-24T23:17:38.717Z,48.40
2018-12-24T23:20:08.032Z,48.06
2018-12-24T23:22:36.928Z,48.38
2018-12-24T23:25:06.022Z,48.05
2018-12-24T23:27:31.927Z,48.30
2018-12-24T23:30:01.031Z,48.48
2018-12-24T23:32:29.968Z,48.20
2018-12-24T23:34:59.043Z,48.13
2018-12-24T23:37:28.014Z,48.09
2018-12-24T23:39:56.699Z,48.17
2018-12-24T23:42:25.365Z,48.02
2018-12-24T23:44:57.455Z,48.40
2018-12-24T23:47:23.351Z,48.61
2018-12-24T23:49:52.310Z,48.70
2018-12-24T23:52:21.242Z,48.60
2018-12-24T23:54:47.184Z,48.71
2018-12-24T23:57:13.082Z,48.63
2018-12-24T23:59:42.607Z,48.66
